Time;durP1;ratioP1;P1;durP2;ratioP2;P2;SDS_P1;SDS_P2;PMS_P1;PMS_P2;Temp;Humidity;BMP_temperature;BMP_pressure;BME280_temperature;BME280_humidity;BME280_pressure;Samples;Min_cycle;Max_cycle;Signal;HPM_P1;HPM_P2
2022/07/30 00:00:01;;;;;;;14.05;12.75;;;;;;;20.51;100.00;99586.81;5000744;28;20038;-78
2022/07/30 00:02:27;;;;;;;15.05;13.07;;;;;;;20.48;100.00;99592.59;5001373;28;20030;-77
2022/07/30 00:04:52;;;;;;;13.40;12.20;;;;;;;20.45;100.00;99584.97;5000781;28;20038;-78
2022/07/30 00:07:18;;;;;;;13.68;12.50;;;;;;;20.42;100.00;99580.03;5002339;28;20030;-76
2022/07/30 00:09:44;;;;;;;14.23;12.98;;;;;;;20.38;100.00;99578.78;4997960;28;20181;-77
2022/07/30 00:12:09;;;;;;;13.57;12.40;;;;;;;20.38;100.00;99576.91;5002760;28;20061;-76
2022/07/30 00:14:36;;;;;;;13.60;12.50;;;;;;;20.37;100.00;99577.13;5000070;28;20045;-77
2022/07/30 00:17:03;;;;;;;14.13;12.82;;;;;;;20.35;100.00;99576.50;5003384;28;20033;-76
2022/07/30 00:19:29;;;;;;;14.88;13.38;;;;;;;20.32;100.00;99580.41;5001298;28;20053;-75
2022/07/30 00:21:55;;;;;;;14.90;13.48;;;;;;;20.29;100.00;99574.63;5002033;28;20029;-77
2022/07/30 00:24:21;;;;;;;14.45;13.25;;;;;;;20.29;100.00;99577.28;5002422;28;20030;-77
2022/07/30 00:26:46;;;;;;;14.30;12.88;;;;;;;20.27;100.00;99576.66;5002082;28;20061;-77
2022/07/30 00:29:12;;;;;;;15.02;13.52;;;;;;;20.27;100.00;99572.13;5002321;28;20034;-76
2022/07/30 00:31:38;;;;;;;14.00;12.73;;;;;;;20.29;100.00;99574.63;4999309;28;20108;-74
2022/07/30 00:34:04;;;;;;;14.07;12.68;;;;;;;20.31;100.00;99573.41;4997570;28;20026;-75
2022/07/30 00:36:29;;;;;;;14.43;13.00;;;;;;;20.17;100.00;99573.56;4999546;28;20483;-77
2022/07/30 00:38:55;;;;;;;13.50;12.40;;;;;;;20.10;100.00;99570.03;5001568;28;20081;-77
2022/07/30 00:41:21;;;;;;;14.02;12.73;;;;;;;20.07;100.00;99570.47;5003148;28;20045;-77
2022/07/30 00:43:46;;;;;;;14.18;12.88;;;;;;;20.02;100.00;99574.59;4997346;28;20113;-76
2022/07/30 00:46:13;;;;;;;13.88;12.65;;;;;;;19.97;100.00;99574.34;5002905;28;20072;-77
2022/07/30 00:48:39;;;;;;;17.23;14.52;;;;;;;19.95;100.00;99572.91;4996657;28;20033;-77
2022/07/30 00:51:05;;;;;;;21.08;15.95;;;;;;;19.92;100.00;99575.97;5001495;28;20030;-75
2022/07/30 00:53:31;;;;;;;24.55;16.88;;;;;;;19.89;100.00;99574.56;5000523;28;20026;-75
2022/07/30 00:55:57;;;;;;;27.63;17.52;;;;;;;19.92;100.00;99573.31;5001036;28;20491;-76
2022/07/30 00:58:23;;;;;;;26.85;18.23;;;;;;;19.93;100.00;99570.44;5000886;28;20029;-75
2022/07/30 01:00:48;;;;;;;28.45;18.83;;;;;;;20.00;100.00;99576.63;5000579;28;20081;-75
2022/07/30 01:03:14;;;;;;;40.97;19.85;;;;;;;19.93;100.00;99570.44;5001774;28;20101;-75
2022/07/30 01:05:40;;;;;;;40.55;21.17;;;;;;;19.83;100.00;99578.03;5000246;28;20045;-76
2022/07/30 01:08:05;;;;;;;57.90;21.42;;;;;;;19.88;100.00;99578.25;4995482;28;20118;-76
2022/07/30 01:10:31;;;;;;;35.85;23.45;;;;;;;19.94;100.00;99577.44;5003300;28;20037;-75
2022/07/30 01:12:58;;;;;;;53.55;20.80;;;;;;;19.89;100.00;99579.91;5001139;28;20027;-76
2022/07/30 01:15:24;;;;;;;54.83;22.77;;;;;;;19.80;100.00;99578.41;5000851;28;20037;-76
2022/07/30 01:17:52;;;;;;;32.58;23.35;;;;;;;19.82;100.00;99584.41;4998422;28;20426;-76
2022/07/30 01:20:33;;;;;;;38.08;23.58;;;;;;;19.90;100.00;99570.03;5000252;28;20077;-76
2022/07/30 01:23:26;;;;;;;37.92;22.50;;;;;;;19.88;100.00;99572.91;5000342;28;20482;-76
2022/07/30 01:26:04;;;;;;;46.80;19.92;;;;;;;19.69;100.00;99584.38;4994724;28;20120;-76
2022/07/30 01:28:37;;;;;;;32.08;22.00;;;;;;;19.61;100.00;99587.25;5001375;28;20026;-76
2022/07/30 01:31:07;;;;;;;37.85;21.50;;;;;;;19.60;100.00;99581.06;5000188;28;20038;-75
2022/07/30 01:33:38;;;;;;;29.15;21.95;;;;;;;19.60;100.00;99577.53;4999575;28;20038;-76
2022/07/30 01:36:07;;;;;;;;;;;;;;;19.70;100.00;99579.84;4996868;28;20041;-76
2022/07/30 01:38:34;;;;;;;38.78;23.52;;;;;;;19.76;100.00;99569.16;4999611;28;20280;-75
2022/07/30 01:41:02;;;;;;;33.30;23.42;;;;;;;19.82;100.00;99578.22;5000838;28;20445;-75
2022/07/30 01:43:31;;;;;;;35.80;25.17;;;;;;;19.86;100.00;99569.59;4984951;28;20570;-76
2022/07/30 01:45:58;;;;;;;32.03;23.35;;;;;;;19.89;100.00;99574.56;5001931;28;20057;-76
2022/07/30 01:48:25;;;;;;;31.50;23.48;;;;;;;19.92;100.00;99568.78;5002250;28;20036;-76
2022/07/30 01:50:55;;;;;;;23.92;21.45;;;;;;;19.95;100.00;99563.03;5002893;28;20479;-76
2022/07/30 01:53:24;;;;;;;21.90;19.77;;;;;;;20.02;100.00;99566.56;5001735;28;20503;-77
2022/07/30 01:55:52;;;;;;;21.17;18.98;;;;;;;19.95;100.00;99563.03;5005066;28;20046;-76
2022/07/30 01:58:20;;;;;;;24.08;20.40;;;;;;;19.85;100.00;99557.22;5007801;28;20038;-78
2022/07/30 02:00:53;;;;;;;23.00;20.50;;;;;;;19.84;100.00;99555.59;5003830;28;20096;-76
2022/07/30 02:03:21;;;;;;;21.85;19.55;;;;;;;19.94;100.00;99549.84;5008834;28;20030;-77
2022/07/30 02:05:58;;;;;;;21.80;19.50;;;;;;;20.01;100.00;99551.50;5004363;28;20394;-75
2022/07/30 02:08:33;;;;;;;22.75;20.33;;;;;;;20.03;100.00;99549.44;4999614;28;20026;-76
2022/07/30 02:11:11;;;;;;;21.77;19.58;;;;;;;20.10;100.00;99548.63;5005213;28;20041;-77
2022/07/30 02:13:53;;;;;;;22.90;18.67;;;;;;;20.16;100.00;99537.09;5005659;28;20033;-76
2022/07/30 02:16:25;;;;;;;21.15;19.05;;;;;;;20.23;100.00;99537.91;5004069;28;20379;-75
2022/07/30 02:19:02;;;;;;;23.75;19.35;;;;;;;20.26;100.00;99537.53;5006979;28;20062;-75
2022/07/30 02:21:33;;;;;;;21.35;19.08;;;;;;;20.31;100.00;99530.50;5006320;28;20038;-76
2022/07/30 02:24:02;;;;;;;25.00;19.95;;;;;;;20.35;100.00;99528.28;5005125;28;20401;-76
2022/07/30 02:26:29;;;;;;;23.73;20.17;;;;;;;20.39;100.00;99533.00;5007102;28;20023;-77
2022/07/30 02:28:59;;;;;;;25.65;21.45;;;;;;;20.43;100.00;99522.72;5007497;28;20041;-76
2022/07/30 02:31:27;;;;;;;28.58;23.02;;;;;;;20.46;100.00;99519.59;5004104;28;20026;-77
2022/07/30 02:33:58;;;;;;;28.98;21.63;;;;;;;20.47;100.00;99529.28;4999048;28;20026;-76
2022/07/30 02:36:26;;;;;;;26.52;21.52;;;;;;;20.46;100.00;99532.19;5005142;28;20398;-77
2022/07/30 02:38:52;;;;;;;29.83;23.27;;;;;;;20.42;100.00;99521.88;4999252;28;20034;-76
2022/07/30 02:41:21;;;;;;;28.33;20.90;;;;;;;20.40;100.00;99523.09;5005544;28;20128;-75
2022/07/30 02:43:49;;;;;;;28.60;24.02;;;;;;;20.40;100.00;99525.78;4998306;28;21910;-75
2022/07/30 02:46:20;;;;;;;30.67;22.88;;;;;;;20.35;100.00;99525.59;5004206;28;20417;-76
2022/07/30 02:49:08;;;;;;;23.98;21.40;;;;;;;20.37;100.00;99534.25;5002440;28;20113;-76
2022/07/30 02:51:35;;;;;;;29.53;23.30;;;;;;;20.42;100.00;99521.88;5002567;28;20040;-76
2022/07/30 02:54:02;;;;;;;29.33;21.63;;;;;;;20.47;100.00;99523.94;5001989;28;20043;-75
2022/07/30 02:56:30;;;;;;;29.23;22.38;;;;;;;20.50;100.00;99528.88;4997995;28;20034;-75
2022/07/30 02:58:57;;;;;;;28.48;22.67;;;;;;;20.48;100.00;99528.28;4999947;28;20057;-75
2022/07/30 03:01:24;;;;;;;32.28;23.92;;;;;;;20.48;100.00;99530.97;4994108;28;20330;-75
2022/07/30 03:03:51;;;;;;;26.83;21.15;;;;;;;20.52;100.00;99532.19;5003129;28;20755;-75
2022/07/30 03:06:18;;;;;;;25.85;21.25;;;;;;;20.56;100.00;99528.03;4995539;28;20091;-75
2022/07/30 03:08:44;;;;;;;30.20;22.50;;;;;;;20.58;100.00;99526.00;5000276;28;20541;-75
2022/07/30 03:11:12;;;;;;;30.13;23.30;;;;;;;20.56;100.00;99528.03;5001344;28;20066;-75
2022/07/30 03:13:39;;;;;;;27.92;23.48;;;;;;;20.45;100.00;99523.31;4997792;28;20060;-75
2022/07/30 03:16:09;;;;;;;35.97;24.30;;;;;;;20.38;100.00;99530.56;5003433;28;20101;-75
2022/07/30 03:18:37;;;;;;;37.63;24.98;;;;;;;20.29;100.00;99537.09;5005370;28;20033;-75
2022/07/30 03:21:07;;;;;;;33.90;23.00;;;;;;;20.21;100.00;99539.97;4997331;28;20045;-75
2022/07/30 03:23:36;;;;;;;34.47;24.42;;;;;;;20.27;100.00;99539.16;5019191;28;20027;-75
2022/07/30 03:26:03;;;;;;;33.50;23.33;;;;;;;20.33;100.00;99543.72;4997612;28;20205;-76
2022/07/30 03:28:31;;;;;;;37.03;24.40;;;;;;;20.28;100.00;99540.81;5001773;28;20035;-75
2022/07/30 03:30:58;;;;;;;31.38;23.85;;;;;;;20.22;100.00;99542.44;5001104;28;20387;-75
2022/07/30 03:33:24;;;;;;;30.20;22.58;;;;;;;20.29;100.00;99545.13;5003355;28;20446;-74
2022/07/30 03:35:51;;;;;;;36.00;23.30;;;;;;;20.35;100.00;99547.03;5000218;28;20038;-75
2022/07/30 03:38:18;;;;;;;31.70;23.17;;;;;;;20.34;100.00;99554.25;5000429;28;20034;-75
2022/07/30 03:40:45;;;;;;;28.67;22.35;;;;;;;20.35;100.00;99558.56;4998806;28;20403;-75
2022/07/30 03:43:12;;;;;;;24.63;20.02;;;;;;;20.35;100.00;99547.03;5001255;28;20042;-73
2022/07/30 03:45:41;;;;;;;29.08;21.25;;;;;;;20.29;100.00;99543.28;5000214;28;20125;-76
2022/07/30 03:48:11;;;;;;;27.98;21.08;;;;;;;20.23;100.00;99554.00;4998222;28;20492;-73
2022/07/30 03:50:42;;;;;;;27.08;21.27;;;;;;;20.20;100.00;99557.09;4982303;28;20057;-76
2022/07/30 03:53:10;;;;;;;28.77;21.65;;;;;;;20.20;100.00;99554.41;5015960;28;20041;-73
2022/07/30 03:55:55;;;;;;;24.42;19.95;;;;;;;20.13;100.00;99558.94;5000684;28;20050;-75
2022/07/30 03:58:57;;;;;;;21.77;18.40;;;;;;;20.07;100.00;99559.75;4986901;28;20042;-75
2022/07/30 04:01:25;;;;;;;20.58;18.25;;;;;;;20.13;100.00;99565.13;5006781;28;20042;-75
2022/07/30 04:03:54;;;;;;;;;;;;;;;20.14;100.00;99558.75;5005014;28;20034;-74
2022/07/30 04:06:19;;;;;;;20.15;17.95;;;;;;;20.17;100.00;99566.34;5000435;28;19923;-75
2022/07/30 04:08:45;;;;;;;20.10;17.23;;;;;;;20.15;100.00;99559.53;4999537;28;20050;-75
2022/07/30 04:11:10;;;;;;;21.60;19.17;;;;;;;20.21;100.00;99556.03;4998589;28;20034;-75
2022/07/30 04:13:47;;;;;;;21.38;18.23;;;;;;;20.25;100.00;99551.94;5000807;28;20129;-76
2022/07/30 04:16:33;;;;;;;18.40;16.58;;;;;;;20.22;100.00;99546.97;4998069;28;20145;-75
2022/07/30 04:19:02;;;;;;;19.45;17.45;;;;;;;20.21;100.00;99550.69;4999842;28;20042;-75
2022/07/30 04:21:31;;;;;;;18.23;16.37;;;;;;;20.27;100.00;99544.50;5000048;28;20390;-74
2022/07/30 04:23:56;;;;;;;20.95;18.13;;;;;;;20.32;100.00;99548.25;5000601;28;20038;-75
2022/07/30 04:26:22;;;;;;;18.73;16.83;;;;;;;20.35;100.00;99547.84;4997823;28;20049;-76
2022/07/30 04:28:49;;;;;;;20.65;18.55;;;;;;;20.33;100.00;99554.44;5003060;28;20037;-76
2022/07/30 04:31:15;;;;;;;23.52;17.83;;;;;;;20.28;100.00;99559.56;4999709;28;20042;-76
2022/07/30 04:33:44;;;;;;;20.48;18.33;;;;;;;20.31;100.00;99570.72;4984749;28;20030;-75
2022/07/30 04:36:24;;;;;;;20.80;18.60;;;;;;;20.29;100.00;99574.63;5002592;28;20101;-76
2022/07/30 04:38:50;;;;;;;21.30;18.00;;;;;;;20.33;100.00;99576.72;5001363;28;20034;-75
2022/07/30 04:41:16;;;;;;;21.27;17.40;;;;;;;20.39;100.00;99577.75;5001204;28;20080;-75
2022/07/30 04:44:00;;;;;;;18.10;16.23;;;;;;;20.47;100.00;99590.94;5000477;28;20559;-76
2022/07/30 04:46:27;;;;;;;19.08;17.08;;;;;;;20.50;100.00;99592.41;5001101;28;20435;-76
2022/07/30 04:48:53;;;;;;;20.67;16.50;;;;;;;20.43;100.00;99587.88;5000616;28;20126;-76
2022/07/30 04:51:24;;;;;;;19.92;17.20;;;;;;;20.28;100.00;99594.41;4999985;28;20037;-74
2022/07/30 04:53:52;;;;;;;19.02;16.40;;;;;;;20.21;100.00;99609.63;4997567;28;20053;-75
2022/07/30 04:56:19;;;;;;;18.65;16.67;;;;;;;20.21;100.00;99609.63;4999586;28;20034;-75
2022/07/30 04:58:46;;;;;;;19.40;17.30;;;;;;;20.16;100.00;99612.09;5000670;28;20030;-75
2022/07/30 05:01:17;;;;;;;18.98;16.52;;;;;;;20.16;100.00;99617.47;4988380;28;20035;-75
2022/07/30 05:03:45;;;;;;;20.58;18.38;;;;;;;20.14;100.00;99619.53;4990483;28;20054;-76
2022/07/30 05:06:11;;;;;;;18.80;16.85;;;;;;;20.20;100.00;99613.38;5009846;28;20061;-75
2022/07/30 05:08:39;;;;;;;19.23;17.20;;;;;;;20.26;100.00;99613.34;5003075;28;20482;-76
2022/07/30 05:11:11;;;;;;;20.10;18.10;;;;;;;20.14;100.00;99616.84;4999834;28;20092;-75
2022/07/30 05:13:36;;;;;;;19.83;17.15;;;;;;;20.10;100.00;99611.06;5000385;28;20037;-76
2022/07/30 05:16:03;;;;;;;19.40;16.52;;;;;;;20.21;100.00;99612.31;4997280;28;20387;-76
2022/07/30 05:18:28;;;;;;;20.60;17.45;;;;;;;20.23;100.00;99608.41;5002551;28;20030;-75
2022/07/30 05:20:54;;;;;;;19.83;17.73;;;;;;;20.23;100.00;99603.06;5000509;28;20117;-75
2022/07/30 05:23:38;;;;;;;19.27;16.75;;;;;;;20.37;100.00;99614.66;5002055;28;20133;-76
2022/07/30 05:26:11;;;;;;;20.13;17.17;;;;;;;20.44;100.00;99607.44;4996209;28;20450;-75
2022/07/30 05:28:41;;;;;;;19.38;16.80;;;;;;;20.44;100.00;99610.09;4997209;28;20030;-76
2022/07/30 05:31:10;;;;;;;19.55;17.27;;;;;;;20.37;100.00;99603.94;4999964;28;20121;-75
2022/07/30 05:33:37;;;;;;;20.35;17.63;;;;;;;20.35;100.00;99608.66;5000791;28;20030;-76
2022/07/30 05:36:03;;;;;;;19.55;17.45;;;;;;;20.40;100.00;99612.38;4999007;28;20048;-76
2022/07/30 05:38:29;;;;;;;22.35;17.23;;;;;;;20.50;100.00;99614.66;4999386;28;20411;-76
2022/07/30 05:41:13;;;;;;;22.52;18.23;;;;;;;20.55;100.00;99616.75;4997314;28;20037;-76
2022/07/30 05:44:02;;;;;;;20.70;17.85;;;;;;;20.63;100.00;99619.19;4993004;28;20046;-77
2022/07/30 05:46:30;;;;;;;21.60;19.08;;;;;;;20.72;100.00;99618.81;5000017;28;20038;-75
2022/07/30 05:48:55;;;;;;;22.60;18.15;;;;;;;20.81;100.00;99617.56;4999128;28;20387;-77
2022/07/30 05:51:22;;;;;;;25.13;20.10;;;;;;;20.84;100.00;99617.16;4998031;28;20034;-75
2022/07/30 05:53:48;;;;;;;24.45;20.10;;;;;;;20.84;100.00;99617.16;5001293;28;20441;-76
2022/07/30 05:56:40;;;;;;;22.10;19.15;;;;;;;20.92;100.00;99615.25;4982952;28;20045;-75
2022/07/30 05:59:28;;;;;;;24.38;19.77;;;;;;;20.92;100.00;99617.94;4995360;28;20042;-77
2022/07/30 06:02:05;;;;;;;21.98;18.63;;;;;;;20.97;100.00;99615.50;4999167;28;20022;-76
2022/07/30 06:04:46;;;;;;;22.48;19.40;;;;;;;20.96;100.00;99622.72;4998744;28;20045;-76
2022/07/30 06:07:11;;;;;;;24.17;20.38;;;;;;;20.93;100.00;99624.97;4998721;28;20065;-75
2022/07/30 06:09:37;;;;;;;24.10;20.75;;;;;;;20.93;100.00;99619.59;5000016;28;20455;-76
2022/07/30 06:12:03;;;;;;;24.88;20.45;;;;;;;21.08;100.00;99622.91;5000194;28;20088;-74
2022/07/30 06:14:30;;;;;;;27.52;22.33;;;;;;;21.09;100.00;99619.16;4999971;28;20038;-75
2022/07/30 06:16:56;;;;;;;25.95;21.13;;;;;;;21.13;100.00;99620.41;4996793;28;20046;-76
2022/07/30 06:19:25;;;;;;;25.52;20.30;;;;;;;21.04;100.00;99621.66;4993104;28;20454;-76
2022/07/30 06:21:50;;;;;;;25.67;20.50;;;;;;;20.95;100.00;99623.75;4997647;28;20100;-76
2022/07/30 06:24:17;;;;;;;21.55;18.05;;;;;;;21.04;100.00;99616.28;5003119;28;20030;-76
2022/07/30 06:26:49;;;;;;;21.45;18.77;;;;;;;21.07;100.00;99615.88;4998754;28;20379;-75
2022/07/30 06:29:14;;;;;;;21.33;18.58;;;;;;;20.91;100.00;99621.69;5000345;28;20030;-78
2022/07/30 06:31:41;;;;;;;20.10;17.90;;;;;;;20.76;100.00;99630.75;5001797;28;20406;-77
2022/07/30 06:34:08;;;;;;;20.77;18.63;;;;;;;20.66;100.00;99635.72;5001486;28;20138;-75
2022/07/30 06:36:40;;;;;;;21.25;17.58;;;;;;;20.74;100.00;99632.81;5001029;28;20375;-76
2022/07/30 06:39:18;;;;;;;19.13;17.10;;;;;;;21.01;100.00;99627.44;5000262;28;20038;-73
2022/07/30 06:41:52;;;;;;;22.40;19.40;;;;;;;20.81;100.00;99635.50;5003230;28;20446;-75
2022/07/30 06:44:18;;;;;;;20.73;18.55;;;;;;;20.88;100.00;99638.19;5003957;28;20056;-76
2022/07/30 06:47:04;;;;;;;21.77;18.98;;;;;;;21.06;100.00;99638.38;4992072;28;20041;-74
2022/07/30 06:49:31;;;;;;;21.63;18.25;;;;;;;21.09;100.00;99646.00;5005644;28;20034;-85
2022/07/30 06:51:58;;;;;;;22.30;18.92;;;;;;;21.05;100.00;99644.75;4987779;28;20038;-86
2022/07/30 06:54:24;;;;;;;26.42;20.65;;;;;;;21.19;100.00;99646.44;5006542;28;20025;-87
2022/07/30 06:56:53;;;;;;;25.48;18.75;;;;;;;21.32;100.00;99641.06;4999033;28;20025;-86
2022/07/30 06:59:19;;;;;;;21.25;19.05;;;;;;;21.42;100.00;99657.53;5001183;28;20038;-85
2022/07/30 07:02:03;;;;;;;22.23;19.30;;;;;;;21.33;100.00;99652.59;5000017;28;20045;-88
2022/07/30 07:04:33;;;;;;;24.30;19.85;;;;;;;21.14;100.00;99656.94;5006855;28;20046;-72
2022/07/30 07:06:59;;;;;;;20.98;18.70;;;;;;;21.19;100.00;99657.19;4994926;28;20033;-72
2022/07/30 07:09:31;;;;;;;21.40;19.17;;;;;;;21.22;100.00;99656.75;4999886;28;20032;-74
2022/07/30 07:12:15;;;;;;;19.13;17.13;;;;;;;21.36;100.00;99660.25;4997430;28;20099;-72
2022/07/30 07:14:42;;;;;;;22.13;19.60;;;;;;;21.26;100.00;99666.06;4999111;28;20442;-72
2022/07/30 07:17:08;;;;;;;22.83;19.63;;;;;;;21.27;100.00;99670.34;4980823;28;20120;-72
2022/07/30 07:20:09;;;;;;;21.92;19.60;;;;;;;21.12;100.00;99675.09;4958330;28;20058;-72
2022/07/30 07:22:43;;;;;;;22.50;20.10;;;;;;;21.35;100.00;99661.28;4987770;28;20136;-73
2022/07/30 07:25:09;;;;;;;23.65;20.67;;;;;;;21.28;100.00;99660.44;4997173;28;20037;-71
2022/07/30 07:27:38;;;;;;;24.02;21.10;;;;;;;21.25;100.00;99661.72;5002308;28;20433;-71
2022/07/30 07:30:05;;;;;;;23.85;20.88;;;;;;;21.30;100.00;99656.53;4996714;28;20498;-72
2022/07/30 07:32:34;;;;;;;24.23;21.58;;;;;;;21.47;100.00;99665.78;4995184;28;20565;-70
2022/07/30 07:35:01;;;;;;;25.40;21.02;;;;;;;21.61;100.00;99666.59;5002311;28;20057;-70
2022/07/30 07:37:27;;;;;;;27.58;22.70;;;;;;;21.60;100.00;99664.94;4998289;28;20109;-71
2022/07/30 07:39:53;;;;;;;23.77;20.95;;;;;;;21.72;100.00;99676.66;4985553;28;20038;-71
2022/07/30 07:42:19;;;;;;;22.75;20.35;;;;;;;21.88;100.00;99678.06;5002415;28;20043;-71
2022/07/30 07:44:46;;;;;;;24.52;21.70;;;;;;;21.70;100.00;99680.59;5001122;28;20064;-71
2022/07/30 07:47:12;;;;;;;24.70;21.00;;;;;;;21.86;100.00;99682.81;4993849;28;20050;-70
2022/07/30 07:49:43;;;;;;;23.00;20.55;;;;;;;22.02;100.00;99679.69;4987000;28;20035;-71
2022/07/30 07:52:09;;;;;;;24.23;21.52;;;;;;;22.10;100.00;99682.13;4995912;28;20100;-71
2022/07/30 07:54:36;;;;;;;24.88;21.17;;;;;;;22.20;100.00;99687.88;4984647;28;20025;-74
2022/07/30 07:57:06;;;;;;;22.40;19.67;;;;;;;22.37;100.00;99686.34;4991108;28;20034;-71
2022/07/30 07:59:42;;;;;;;26.73;22.30;;;;;;;22.34;100.00;99684.06;4998970;28;20030;-71
2022/07/30 08:02:16;;;;;;;27.10;22.10;;;;;;;22.18;100.00;99684.56;4989421;28;20497;-70
2022/07/30 08:04:55;;;;;;;25.67;22.63;;;;;;;22.32;100.00;99686.16;4988266;28;20483;-70
2022/07/30 08:07:40;;;;;;;24.45;21.90;;;;;;;22.43;100.00;99682.78;4990107;28;20394;-71
2022/07/30 08:10:25;;;;;;;27.02;22.40;;;;;;;22.53;100.00;99676.09;4994998;28;20097;-70
2022/07/30 08:13:10;;;;;;;23.10;20.40;;;;;;;22.66;100.00;99670.63;4992971;28;20526;-71
2022/07/30 08:15:45;;;;;;;26.00;21.77;;;;;;;22.65;100.00;99674.34;4995245;28;20050;-72
2022/07/30 08:18:35;;;;;;;25.25;22.52;;;;;;;22.56;100.00;99664.91;4991723;28;20034;-71
2022/07/30 08:21:15;;;;;;;28.25;22.88;;;;;;;22.64;100.00;99667.31;4977715;28;20495;-72
2022/07/30 08:23:41;;;;;;;25.67;22.92;;;;;;;22.66;100.00;99654.50;4993595;28;20037;-74
2022/07/30 08:26:06;;;;;;;26.05;23.00;;;;;;;22.71;100.00;99654.66;4995097;28;20386;-71
2022/07/30 08:28:32;;;;;;;26.60;23.70;;;;;;;22.73;100.00;99666.06;4995192;28;20077;-70
2022/07/30 08:30:58;;;;;;;26.55;21.67;;;;;;;22.77;100.00;99659.19;4996580;28;20040;-71
2022/07/30 08:33:24;;;;;;;25.80;22.30;;;;;;;22.75;100.00;99661.25;4995303;28;20023;-73
2022/07/30 08:35:50;;;;;;;26.73;22.73;;;;;;;22.73;100.00;99666.06;4998068;28;20018;-74
2022/07/30 08:38:15;;;;;;;24.08;21.00;;;;;;;22.82;100.00;99664.72;4998835;28;20117;-75
2022/07/30 08:40:41;;;;;;;25.63;22.63;;;;;;;22.82;100.00;99662.03;4992940;28;20537;-75
2022/07/30 08:43:07;;;;;;;24.67;22.08;;;;;;;22.86;100.00;99649.78;4992555;28;20097;-75
2022/07/30 08:45:35;;;;;;;25.85;19.42;;;;;;;23.00;100.00;99662.09;4993983;28;20045;-76
2022/07/30 08:48:16;;;;;;;27.25;22.35;;;;;;;23.14;100.00;99663.63;4994021;28;20040;-76
2022/07/30 08:50:44;;;;;;;26.40;20.92;;;;;;;23.26;100.00;99666.44;4989340;28;20450;-76
2022/07/30 08:53:40;;;;;;;23.23;20.63;;;;;;;23.36;100.00;99665.91;4998472;28;20112;-75
2022/07/30 08:56:07;;;;;;;25.25;22.00;;;;;;;23.44;100.00;99668.31;4996422;28;20475;-75
2022/07/30 08:58:34;;;;;;;21.67;19.38;;;;;;;23.50;100.00;99667.47;5000608;28;20030;-74
2022/07/30 09:01:00;;;;;;;25.35;19.92;;;;;;;23.53;100.00;99667.81;5000603;28;20037;-75
2022/07/30 09:03:27;;;;;;;19.98;17.88;;;;;;;23.60;100.00;99667.75;5000776;28;20068;-75
2022/07/30 09:05:56;;;;;;;21.50;19.25;;;;;;;23.70;100.00;99673.44;5001705;28;20072;-75
2022/07/30 09:08:22;;;;;;;18.75;16.85;;;;;;;23.82;100.00;99671.63;4999332;28;20062;-76
2022/07/30 09:10:49;;;;;;;21.45;18.02;;;;;;;23.91;100.00;99674.84;4996242;28;20038;-75
2022/07/30 09:13:23;;;;;;;20.95;18.75;;;;;;;24.01;100.00;99681.34;5000082;28;20019;-75
2022/07/30 09:15:49;;;;;;;19.20;17.17;;;;;;;24.08;100.00;99676.72;4999295;28;20037;-76
2022/07/30 09:18:26;;;;;;;18.33;16.42;;;;;;;24.18;100.00;99675.31;5000439;28;20038;-77
2022/07/30 09:20:51;;;;;;;19.02;15.82;;;;;;;24.27;100.00;99668.63;4998465;28;20042;-76
2022/07/30 09:23:17;;;;;;;18.73;16.83;;;;;;;24.34;100.00;99672.00;4996199;28;20022;-76
2022/07/30 09:26:08;;;;;;;18.30;16.02;;;;;;;24.24;100.00;99671.75;5000917;28;20050;-76
2022/07/30 09:28:39;;;;;;;17.02;15.02;;;;;;;24.37;100.00;99668.88;4993383;28;20046;-76
2022/07/30 09:31:16;;;;;;;19.00;17.13;;;;;;;24.43;100.00;99667.97;4996221;28;20049;-76
2022/07/30 09:34:00;;;;;;;17.30;15.52;;;;;;;24.52;100.00;99677.34;4999625;28;20128;-75
2022/07/30 09:37:00;;;;;;;14.43;12.98;;;;;;;24.62;100.00;99676.81;4994879;28;20042;-74
2022/07/30 09:39:36;;;;;;;11.57;10.55;;;;;;;24.71;100.00;99675.41;5000708;28;20039;-76
2022/07/30 09:42:22;;;;;;;12.85;11.73;;;;;;;24.86;100.00;99679.31;4990614;28;20035;-75
2022/07/30 09:44:51;;;;;;;16.83;15.02;;;;;;;24.94;100.00;99682.75;5000417;28;20108;-76
2022/07/30 09:47:48;;;;;;;15.60;14.00;;;;;;;24.94;100.00;99680.88;4996629;28;20636;-75
2022/07/30 09:50:23;;;;;;;13.02;11.93;;;;;;;24.93;100.00;99683.81;4970346;28;20507;-75
2022/07/30 09:52:49;;;;;;;10.90;9.82;;;;;;;24.98;100.00;99675.84;4994014;28;20073;-75
2022/07/30 09:55:30;;;;;;;10.90;9.70;;;;;;;25.04;100.00;99666.81;5000821;28;20121;-75
2022/07/30 09:57:58;;;;;;;11.27;10.18;;;;;;;25.12;100.00;99670.00;4998112;28;20038;-75
2022/07/30 10:00:28;;;;;;;8.82;8.13;;;;;;;25.21;100.00;99671.28;4999091;28;20044;-76
2022/07/30 10:03:19;;;;;;;8.57;7.25;;;;;;;25.33;100.00;99665.88;4995475;28;20106;-74
2022/07/30 10:06:05;;;;;;;7.13;6.30;;;;;;;25.40;100.00;99661.16;4999877;28;20041;-76
2022/07/30 10:08:49;;;;;;;8.43;7.68;;;;;;;25.46;100.00;99660.22;4995702;28;20572;-76
2022/07/30 10:11:18;;;;;;;8.05;7.10;;;;;;;25.53;100.00;99660.94;5018240;28;20351;-76
2022/07/30 10:13:47;;;;;;;6.28;5.72;;;;;;;25.60;100.00;99664.34;5002083;28;20080;-74
2022/07/30 10:16:13;;;;;;;5.55;5.10;;;;;;;25.73;100.00;99657.06;4997587;28;20406;-75
2022/07/30 10:18:41;;;;;;;7.90;5.60;;;;;;;25.81;100.00;99659.34;5002420;28;20128;-75
2022/07/30 10:21:44;;;;;;;5.10;4.70;;;;;;;25.85;98.91;99660.53;4951640;29;20031;-73
2022/07/30 10:24:30;;;;;;;4.90;4.50;;;;;;;25.94;97.15;99657.22;4991086;28;20053;-76
2022/07/30 10:27:23;;;;;;;4.70;4.30;;;;;;;26.01;98.68;99648.97;4977218;28;20065;-77
2022/07/30 10:30:06;;;;;;;4.03;3.72;;;;;;;26.08;91.82;99649.66;5000443;28;20022;-76
2022/07/30 10:32:32;;;;;;;3.55;3.25;;;;;;;26.16;91.76;99641.13;5006364;28;20030;-76
2022/07/30 10:34:58;;;;;;;3.42;3.05;;;;;;;26.26;90.18;99640.56;4999788;28;20038;-77
2022/07/30 10:37:26;;;;;;;3.08;2.85;;;;;;;26.33;88.39;99635.81;5005656;28;20048;-74
2022/07/30 10:40:02;;;;;;;3.72;3.40;;;;;;;26.36;86.88;99638.03;5002135;28;20544;-76
2022/07/30 10:42:45;;;;;;;6.22;3.45;;;;;;;26.37;87.52;99626.97;5001964;28;20034;-74
2022/07/30 10:45:25;;;;;;;3.13;2.83;;;;;;;26.46;86.28;99632.78;4997124;28;20041;-73
2022/07/30 10:47:53;;;;;;;2.58;2.38;;;;;;;26.57;82.41;99631.09;5001383;28;20045;-74
2022/07/30 10:50:25;;;;;;;4.05;2.63;;;;;;;26.63;81.86;99635.50;5002492;28;20482;-75
2022/07/30 10:52:56;;;;;;;2.50;2.30;;;;;;;26.72;77.43;99631.34;4999671;28;20516;-74
2022/07/30 10:55:26;;;;;;;2.33;2.13;;;;;;;26.74;74.48;99626.50;5002183;28;20486;-75
2022/07/30 10:58:10;;;;;;;3.30;2.63;;;;;;;26.85;74.61;99625.59;5004180;28;20120;-75
2022/07/30 11:00:51;;;;;;;4.55;3.28;;;;;;;27.00;74.82;99625.03;5001630;28;20030;-76
2022/07/30 11:03:28;;;;;;;2.65;2.45;;;;;;;27.03;74.82;99630.78;5003347;28;20112;-76
2022/07/30 11:06:15;;;;;;;3.00;1.88;;;;;;;27.14;63.59;99624.47;5001910;28;20128;-76
2022/07/30 11:08:43;;;;;;;1.60;1.50;;;;;;;27.20;65.43;99619.94;4995370;28;20038;-76
2022/07/30 11:11:21;;;;;;;1.52;1.42;;;;;;;27.32;57.49;99622.53;5002238;28;20041;-75
2022/07/30 11:13:56;;;;;;;2.88;1.90;;;;;;;27.40;61.04;99624.78;4997658;28;20034;-75
2022/07/30 11:16:41;;;;;;;1.77;1.65;;;;;;;27.54;60.92;99624.22;5002466;28;20533;-75
2022/07/30 11:19:19;;;;;;;1.48;1.38;;;;;;;27.62;60.40;99625.69;5001740;28;20494;-75
2022/07/30 11:21:49;;;;;;;1.90;1.80;;;;;;;27.62;61.97;99623.78;4997799;28;20033;-76
2022/07/30 11:24:42;;;;;;;1.73;1.63;;;;;;;27.65;58.66;99617.03;5002120;28;20482;-76
2022/07/30 11:27:08;;;;;;;2.95;1.70;;;;;;;27.67;60.58;99625.75;5004265;28;20217;-74
2022/07/30 11:29:37;;;;;;;2.42;1.90;;;;;;;27.73;60.45;99622.03;5000304;28;20042;-76